ZPTAI SSAE-SARP
Flight info
| Callsign | ZPTAI |
|---|---|
| Flight time | N/A |
| Altitude | FL065 |
| Route | 3135S05323W 3021S05420W 2930S05443W 2911S05452W 2829S05514W 2755S05546W |
| Aircraft | C152/L-S/N |
Departure
| Time | N/A |
|---|---|
| Airport | Arroio Grande Airport (SSAE) |
Arrival
| Time | 2026-04-14 15:18 |
|---|---|
| Airport | Libertador Gral D Jose De San Martin Airport (SARP) |
| Time | Latitude | Longitude | Altitude | Speed | Heading |
|---|---|---|---|---|---|
| 2026-04-14 15:13 | -27.48872 | -55.96861 | 2407 ft | 81 kts | 13° |
| 2026-04-14 15:13 | -27.48309 | -55.96872 | 2309 ft | 81 kts | 12° |
| 2026-04-14 15:14 | -27.47749 | -55.96884 | 2178 ft | 80 kts | 10° |
| 2026-04-14 15:14 | -27.47199 | -55.96897 | 2048 ft | 79 kts | 9° |
| 2026-04-14 15:14 | -27.46658 | -55.96909 | 1940 ft | 77 kts | 8° |
| 2026-04-14 15:14 | -27.46126 | -55.96919 | 1832 ft | 77 kts | 8° |
| 2026-04-14 15:15 | -27.45595 | -55.96929 | 1726 ft | 76 kts | 7° |
| 2026-04-14 15:15 | -27.45072 | -55.96941 | 1610 ft | 74 kts | 6° |
| 2026-04-14 15:15 | -27.44580 | -55.96953 | 1520 ft | 63 kts | 6° |
| 2026-04-14 15:15 | -27.44158 | -55.96960 | 1403 ft | 65 kts | 6° |
| 2026-04-14 15:16 | -27.43703 | -55.96962 | 1361 ft | 67 kts | 6° |
| 2026-04-14 15:16 | -27.43254 | -55.96969 | 1323 ft | 61 kts | 6° |
| 2026-04-14 15:16 | -27.42820 | -55.96972 | 1223 ft | 64 kts | 6° |
| 2026-04-14 15:16 | -27.42372 | -55.96980 | 1116 ft | 65 kts | 5° |
| 2026-04-14 15:17 | -27.41917 | -55.96987 | 1005 ft | 66 kts | 5° |
| 2026-04-14 15:17 | -27.41461 | -55.96993 | 900 ft | 62 kts | 5° |
| 2026-04-14 15:17 | -27.41043 | -55.97000 | 829 ft | 62 kts | 5° |
| 2026-04-14 15:17 | -27.40602 | -55.97010 | 741 ft | 65 kts | 4° |
| 2026-04-14 15:18 | -27.40144 | -55.97021 | 634 ft | 67 kts | 4° |
| 2026-04-14 15:18 | -27.39696 | -55.97038 | 490 ft | 62 kts | 5° |
| 2026-04-14 15:18 | -27.39328 | -55.97037 | 433 ft | 36 kts | 13° |
| 2026-04-14 15:18 | -27.39090 | -55.97043 | 433 ft | 33 kts | 11° |
| 2026-04-14 15:19 | -27.38973 | -55.97001 | 433 ft | 12 kts | 125° |
| 2026-04-14 15:19 | -27.39003 | -55.96971 | 433 ft | 0 kts | 144° |
| 2026-04-14 15:19 | -27.39059 | -55.96898 | 433 ft | 25 kts | 95° |
| 2026-04-14 15:19 | -27.39055 | -55.96746 | 433 ft | 10 kts | 31° |
| 2026-04-14 15:20 | -27.39047 | -55.96741 | 433 ft | 0 kts | 31° |